Time;durP1;ratioP1;P1;durP2;ratioP2;P2;SDS_P1;SDS_P2;PMS_P1;PMS_P2;Temp;Humidity;BMP_temperature;BMP_pressure;BME280_temperature;BME280_humidity;BME280_pressure;Samples;Min_cycle;Max_cycle;Signal;HPM_P1;HPM_P2
2023/08/03 00:00:51;;;;;;;1.33;0.60;;;20.30;99.90;;;20.76;nan;98901.69;4990638;28;20638;-65
2023/08/03 00:03:18;;;;;;;0.73;0.73;;;20.40;99.90;;;20.75;nan;98912.53;4992884;28;20630;-65
2023/08/03 00:05:47;;;;;;;2.20;0.70;;;20.40;99.90;;;20.75;nan;98907.22;4997254;28;20647;-66
2023/08/03 00:08:14;;;;;;;0.87;0.70;;;20.30;99.90;;;20.71;nan;98914.81;4988417;28;20674;-65
2023/08/03 00:10:41;;;;;;;2.00;0.80;;;20.30;99.90;;;20.69;nan;98926.63;4991700;28;20638;-66
2023/08/03 00:13:08;;;;;;;0.60;0.50;;;20.30;99.90;;;20.72;nan;98912.97;4993496;28;20638;-65
2023/08/03 00:15:35;;;;;;;0.90;0.70;;;20.30;99.90;;;20.74;nan;98921.50;4986732;28;20641;-66
2023/08/03 00:18:02;;;;;;;0.60;0.60;;;20.30;99.90;;;20.73;nan;98920.69;4997105;28;21313;-65
2023/08/03 00:20:29;;;;;;;0.50;0.50;;;20.30;99.90;;;20.71;nan;98927.22;4994683;28;20626;-66
2023/08/03 00:22:56;;;;;;;0.90;0.70;;;20.30;99.90;;;20.65;nan;98928.91;4990901;28;20637;-64
2023/08/03 00:25:24;;;;;;;0.80;0.50;;;20.30;99.90;;;20.63;nan;98925.69;4991179;28;20650;-64
2023/08/03 00:27:52;;;;;;;1.00;0.80;;;20.20;99.90;;;20.60;nan;98935.88;4998311;28;21311;-65
2023/08/03 00:30:18;;;;;;;0.80;0.50;;;20.20;99.90;;;20.60;nan;98935.88;4986943;28;20638;-64
2023/08/03 00:32:45;;;;;;;1.90;0.40;;;20.20;99.90;;;20.63;nan;98940.75;4993830;28;20637;-64
2023/08/03 00:35:13;;;;;;;0.60;0.50;;;20.20;99.90;;;20.63;nan;98940.75;4990167;28;20643;-64
2023/08/03 00:37:40;;;;;;;3.10;0.60;;;20.20;99.90;;;20.61;nan;98937.50;4997347;28;20668;-65
2023/08/03 00:40:07;;;;;;;0.50;0.50;;;20.20;99.90;;;20.63;nan;98927.50;4990639;28;20645;-64
2023/08/03 00:42:34;;;;;;;1.00;0.80;;;20.20;99.90;;;20.62;nan;98921.38;4989118;28;20645;-65
2023/08/03 00:45:03;;;;;;;1.23;0.90;;;20.20;99.90;;;20.62;nan;98923.22;4988528;28;20634;-66
2023/08/03 00:47:30;;;;;;;0.47;0.47;;;20.20;99.90;;;20.62;nan;98934.63;4983745;28;20658;-65
2023/08/03 00:49:57;;;;;;;0.67;0.67;;;20.20;99.90;;;20.58;nan;98938.75;4988688;28;20641;-64
2023/08/03 00:52:25;;;;;;;1.27;0.70;;;20.20;99.90;;;20.54;nan;98945.50;4991349;28;21019;-67
2023/08/03 00:54:52;;;;;;;0.50;0.50;;;20.10;99.90;;;20.54;nan;98947.34;4994760;28;20642;-64
2023/08/03 00:57:19;;;;;;;0.60;0.60;;;20.10;99.90;;;20.51;nan;98953.03;4993076;28;21180;-66
2023/08/03 00:59:46;;;;;;;0.60;0.60;;;20.10;99.90;;;20.53;nan;98948.38;4990961;28;20681;-65
2023/08/03 01:02:13;;;;;;;0.60;0.60;;;20.10;99.90;;;20.51;nan;98958.34;4981208;28;21206;-65
2023/08/03 01:04:40;;;;;;;0.40;0.40;;;20.10;99.90;;;20.49;nan;98949.81;4984792;28;20650;-67
2023/08/03 01:07:07;;;;;;;1.67;0.50;;;20.10;99.90;;;20.50;nan;98946.97;4991177;28;20661;-65
2023/08/03 01:09:34;;;;;;;2.40;0.40;;;20.10;99.90;;;20.39;nan;98947.63;4990942;28;21199;-64
2023/08/03 01:12:01;;;;;;;1.63;0.80;;;20.00;99.90;;;20.34;nan;98938.69;4993490;28;21183;-64
2023/08/03 01:14:29;;;;;;;1.37;0.80;;;19.90;99.90;;;20.30;nan;98940.16;4992616;28;20638;-64
2023/08/03 01:16:56;;;;;;;2.30;0.57;;;19.90;99.90;;;20.23;nan;98944.69;4984755;28;20653;-65
2023/08/03 01:19:23;;;;;;;0.63;0.63;;;19.80;99.90;;;20.11;nan;98947.97;4992756;28;20681;-64
2023/08/03 01:21:51;;;;;;;3.63;0.60;;;19.70;99.90;;;20.06;nan;98957.56;4992353;28;20633;-67
2023/08/03 01:24:18;;;;;;;0.60;0.60;;;19.70;99.90;;;20.08;nan;98952.88;4990980;28;20626;-66
2023/08/03 01:26:45;;;;;;;2.57;0.80;;;19.70;99.90;;;20.09;nan;98941.25;4991480;28;20654;-64
2023/08/03 01:29:12;;;;;;;1.67;0.83;;;19.70;99.90;;;20.14;nan;98942.22;4989734;28;20649;-66
2023/08/03 01:31:40;;;;;;;1.47;0.70;;;19.80;99.90;;;20.18;nan;98952.41;4991163;28;20646;-65
2023/08/03 01:34:08;;;;;;;1.37;1.00;;;19.80;99.90;;;20.16;nan;98970.34;4987824;28;20634;-65
2023/08/03 01:36:35;;;;;;;0.50;0.50;;;19.80;99.90;;;20.19;nan;98969.94;4987063;28;20724;-64
2023/08/03 01:39:08;;;;;;;0.63;0.63;;;19.80;99.90;;;20.18;nan;98978.91;5001825;28;21078;-66
2023/08/03 01:41:37;;;;;;;1.47;0.83;;;19.80;99.90;;;20.15;nan;98993.38;4988145;28;20631;-66
2023/08/03 01:44:27;;;;;;;0.57;0.57;;;19.80;99.90;;;20.14;nan;98981.94;4998886;28;20656;-66
2023/08/03 01:46:57;;;;;;;1.10;0.57;;;19.80;99.90;;;20.09;nan;98980.97;4984583;28;21088;-66
2023/08/03 01:49:29;;;;;;;0.70;0.70;;;19.70;99.90;;;20.04;nan;98984.25;4990427;28;20661;-65
2023/08/03 01:51:56;;;;;;;0.47;0.47;;;19.70;99.90;;;19.98;nan;98973.69;4986795;28;21325;-65
2023/08/03 01:54:24;;;;;;;0.47;0.40;;;19.60;99.90;;;19.91;nan;98968.41;4992223;28;20646;-65
2023/08/03 01:56:55;;;;;;;1.27;0.40;;;19.60;99.90;;;19.84;nan;98967.66;4996993;28;21201;-63
2023/08/03 01:59:22;;;;;;;1.23;0.90;;;19.50;99.90;;;19.80;nan;98970.91;4996563;28;21315;-64
2023/08/03 02:01:49;;;;;;;0.50;0.50;;;19.40;99.90;;;19.72;nan;98966.66;4986812;28;20666;-64
2023/08/03 02:04:17;;;;;;;0.77;0.60;;;19.30;99.90;;;19.69;nan;98963.63;4991285;28;20631;-66
2023/08/03 02:06:51;;;;;;;0.60;0.60;;;19.30;99.90;;;19.67;nan;98976.25;4984445;28;20670;-67
2023/08/03 02:09:18;;;;;;;0.70;0.60;;;19.30;99.90;;;19.63;nan;98991.72;4992576;28;20670;-64
2023/08/03 02:11:45;;;;;;;0.80;0.60;;;19.30;99.90;;;19.60;nan;98986.03;4993549;28;20643;-66
2023/08/03 02:14:13;;;;;;;1.17;0.70;;;19.20;99.90;;;19.57;nan;98991.75;4988434;28;20692;-65
2023/08/03 02:16:40;;;;;;;0.77;0.67;;;19.20;99.90;;;19.57;nan;98991.75;4981412;28;20673;-64
2023/08/03 02:19:08;;;;;;;0.60;0.60;;;19.20;99.90;;;19.57;nan;98989.88;4985402;28;21322;-63
2023/08/03 02:21:35;;;;;;;1.23;0.80;;;19.20;99.90;;;19.55;nan;98999.09;4990710;28;20774;-65
2023/08/03 02:24:02;;;;;;;2.70;0.80;;;19.20;99.90;;;19.55;nan;98999.09;4990398;28;20622;-66
2023/08/03 02:26:29;;;;;;;1.03;0.40;;;19.20;99.90;;;19.54;nan;98994.78;4992654;28;20694;-64
2023/08/03 02:28:56;;;;;;;0.60;0.60;;;19.20;99.90;;;19.56;nan;99008.63;4992172;28;20618;-65
2023/08/03 02:31:23;;;;;;;0.97;0.60;;;19.20;99.90;;;19.56;nan;98996.22;4991629;28;20696;-64
2023/08/03 02:33:50;;;;;;;0.40;0.40;;;19.20;99.90;;;19.55;nan;99005.16;4989227;28;21199;-64
2023/08/03 02:36:17;;;;;;;0.40;0.40;;;19.20;99.90;;;19.53;nan;99011.69;4984303;28;21192;-64
2023/08/03 02:38:44;;;;;;;0.50;0.50;;;19.10;99.90;;;19.49;nan;99016.56;4987493;28;20670;-67
2023/08/03 02:41:11;;;;;;;1.87;0.73;;;19.10;99.90;;;19.55;nan;99009.66;4988461;28;21258;-64
2023/08/03 02:43:38;;;;;;;0.63;0.40;;;19.20;99.90;;;19.55;nan;99020.25;4992474;28;20669;-64
2023/08/03 02:46:05;;;;;;;0.47;0.47;;;19.20;99.90;;;19.52;nan;99015.34;4992249;28;20999;-64
2023/08/03 02:48:32;;;;;;;0.80;0.40;;;19.20;99.90;;;19.51;nan;99030.41;4988496;28;20672;-64
2023/08/03 02:50:59;;;;;;;0.73;0.40;;;19.10;99.90;;;19.45;nan;99025.13;4987027;28;20638;-64
2023/08/03 02:53:26;;;;;;;0.63;0.57;;;19.10;99.90;;;19.43;nan;99030.63;4985014;28;20649;-65
2023/08/03 02:55:53;;;;;;;0.80;0.60;;;19.10;99.90;;;19.39;nan;99037.34;4989467;28;20627;-66
2023/08/03 02:58:19;;;;;;;3.90;0.50;;;19.00;99.90;;;19.34;nan;99040.59;4990221;28;20654;-67
2023/08/03 03:00:46;;;;;;;0.60;0.47;;;19.00;99.90;;;19.34;nan;99029.19;4991348;28;20626;-64
2023/08/03 03:03:13;;;;;;;1.60;0.63;;;19.00;99.90;;;19.32;nan;99058.47;4989022;28;20638;-64
2023/08/03 03:05:40;;;;;;;0.40;0.40;;;19.00;99.90;;;19.25;nan;99041.78;4988063;28;21025;-64
2023/08/03 03:08:07;;;;;;;0.30;0.30;;;18.90;99.90;;;19.21;nan;99051.16;4990490;28;21174;-64
2023/08/03 03:10:37;;;;;;;0.63;0.43;;;18.90;99.90;;;19.23;nan;99058.84;4987402;28;20708;-64
2023/08/03 03:13:04;;;;;;;0.57;0.57;;;18.90;99.90;;;19.21;nan;99050.31;4990911;28;20666;-67
2023/08/03 03:15:31;;;;;;;0.50;0.50;;;18.90;99.90;;;19.19;nan;99052.34;4987629;28;20649;-64
2023/08/03 03:17:58;;;;;;;0.50;0.50;;;18.90;99.90;;;19.17;nan;99059.69;4987968;28;20668;-66
2023/08/03 03:20:25;;;;;;;1.10;0.80;;;18.80;99.90;;;19.12;nan;99057.63;4988218;28;20674;-65
2023/08/03 03:22:52;;;;;;;0.80;0.50;;;18.80;99.90;;;19.09;nan;99065.16;4990169;28;20633;-66
2023/08/03 03:25:19;;;;;;;0.40;0.40;;;18.70;99.90;;;19.11;nan;99074.53;4989614;28;21176;-65
2023/08/03 03:27:46;;;;;;;0.53;0.50;;;18.80;99.90;;;19.11;nan;99077.19;4990995;28;20655;-65
2023/08/03 03:30:13;;;;;;;0.70;0.70;;;18.80;99.90;;;19.08;nan;99067.00;4988591;28;20638;-65
2023/08/03 03:32:40;;;;;;;0.40;0.40;;;18.80;99.90;;;19.05;nan;99071.88;4984861;28;21230;-64
2023/08/03 03:35:07;;;;;;;0.50;0.50;;;18.70;99.90;;;19.02;nan;99082.84;4989137;28;21019;-65
2023/08/03 03:37:34;;;;;;;0.87;0.60;;;18.70;99.90;;;18.99;nan;99089.38;4985323;28;20665;-65
2023/08/03 03:40:01;;;;;;;2.23;0.60;;;18.70;99.90;;;19.00;nan;99100.72;4988255;28;20670;-64
2023/08/03 03:42:28;;;;;;;0.70;0.50;;;18.60;99.90;;;19.02;nan;99096.06;4988302;28;21231;-65
2023/08/03 03:44:55;;;;;;;1.43;0.57;;;18.60;99.90;;;19.02;nan;99096.88;4989582;28;21223;-64
2023/08/03 03:47:22;;;;;;;3.33;0.63;;;18.70;99.90;;;19.04;nan;99101.97;4987266;28;20720;-65
2023/08/03 03:49:48;;;;;;;0.47;0.47;;;18.70;99.90;;;19.05;nan;99098.31;4990722;28;20650;-64
2023/08/03 03:52:15;;;;;;;0.40;0.40;;;18.70;99.90;;;19.05;nan;99106.25;4987143;28;20639;-65
2023/08/03 03:54:42;;;;;;;0.40;0.40;;;18.70;99.90;;;19.06;nan;99105.25;4989980;28;20638;-67
2023/08/03 03:57:09;;;;;;;0.93;0.80;;;18.70;99.90;;;19.08;nan;99108.50;4998103;28;20662;-65
2023/08/03 03:59:36;;;;;;;0.90;0.60;;;18.70;99.90;;;19.09;nan;99107.47;4993539;28;20689;-64
2023/08/03 04:02:03;;;;;;;0.40;0.40;;;18.70;99.90;;;19.12;nan;99113.16;4993832;28;20646;-64
2023/08/03 04:04:30;;;;;;;0.83;0.50;;;18.80;99.90;;;19.15;nan;99114.59;4988533;28;20651;-64
2023/08/03 04:06:58;;;;;;;0.60;0.60;;;18.80;99.90;;;19.15;nan;99114.59;4991499;28;20669;-65
2023/08/03 04:09:25;;;;;;;0.93;0.50;;;18.80;99.90;;;19.16;nan;99110.94;4990169;28;20646;-66
2023/08/03 04:11:52;;;;;;;0.40;0.40;;;18.80;99.90;;;19.19;nan;99115.81;4994605;28;20643;-65
2023/08/03 04:14:19;;;;;;;0.50;0.50;;;18.80;99.90;;;19.19;nan;99127.19;4991106;28;20639;-65
2023/08/03 04:16:46;;;;;;;0.70;0.50;;;18.80;99.90;;;19.21;nan;99135.75;4991286;28;20665;-65
2023/08/03 04:19:13;;;;;;;1.23;0.83;;;18.90;99.90;;;19.25;nan;99142.25;4991827;28;20681;-65
2023/08/03 04:21:40;;;;;;;1.57;0.50;;;18.90;99.90;;;19.28;nan;99139.22;4994726;28;20644;-65
2023/08/03 04:24:08;;;;;;;1.00;0.60;;;18.90;99.90;;;19.31;nan;99154.66;4994327;28;21237;-65
2023/08/03 04:26:34;;;;;;;0.63;0.50;;;19.00;99.90;;;19.32;nan;99147.56;4993421;28;21315;-64
2023/08/03 04:29:01;;;;;;;0.50;0.50;;;18.90;99.90;;;19.31;nan;99151.25;4995856;28;21222;-65
2023/08/03 04:31:28;;;;;;;0.50;0.50;;;18.90;99.90;;;19.34;nan;99150.84;4994372;28;21019;-64
2023/08/03 04:33:55;;;;;;;0.40;0.40;;;19.00;99.90;;;19.29;nan;99156.69;4992221;28;20664;-65
2023/08/03 04:36:22;;;;;;;0.90;0.90;;;19.00;99.90;;;19.31;nan;99154.66;4990658;28;20638;-66
2023/08/03 04:38:49;;;;;;;0.60;0.60;;;19.00;99.90;;;19.35;nan;99165.72;4997010;28;20665;-65
2023/08/03 04:41:19;;;;;;;2.50;0.80;;;19.00;99.90;;;19.35;nan;99157.78;4993008;28;20633;-64
2023/08/03 04:43:46;;;;;;;1.23;0.60;;;19.00;99.90;;;19.34;nan;99156.97;4997144;28;20635;-65
2023/08/03 04:46:13;;;;;;;3.13;0.50;;;19.00;99.90;;;19.37;nan;99160.22;4992390;28;21429;-64
2023/08/03 04:48:40;;;;;;;2.60;0.90;;;19.00;99.90;;;19.37;nan;99153.09;4992182;28;20649;-64
2023/08/03 04:51:08;;;;;;;0.40;0.40;;;19.00;99.90;;;19.38;nan;99165.28;4985410;28;20634;-66
2023/08/03 04:53:35;;;;;;;0.83;0.70;;;19.00;99.90;;;19.43;nan;99164.69;4991308;28;20649;-66
2023/08/03 04:56:03;;;;;;;0.40;0.40;;;19.10;99.90;;;19.44;nan;99168.97;4985865;28;20650;-64
2023/08/03 04:58:29;;;;;;;0.67;0.50;;;19.10;99.90;;;19.37;nan;99181.38;4993480;28;20662;-66
2023/08/03 05:00:57;;;;;;;2.83;0.80;;;19.00;99.90;;;19.37;nan;99184.00;4993120;28;20677;-64
2023/08/03 05:03:24;;;;;;;1.23;0.80;;;19.00;99.90;;;19.38;nan;99183.81;4987299;28;20641;-64
2023/08/03 05:05:51;;;;;;;0.90;0.70;;;19.00;99.90;;;19.36;nan;99191.13;4989978;28;21203;-66
2023/08/03 05:08:22;;;;;;;1.63;0.40;;;19.00;99.90;;;19.36;nan;99185.84;4984085;28;21345;-65
2023/08/03 05:10:49;;;;;;;1.83;0.50;;;19.00;99.90;;;19.40;nan;99192.34;4992033;28;20637;-66
2023/08/03 05:13:17;;;;;;;0.70;0.50;;;19.10;99.90;;;19.45;nan;99189.09;4989917;28;20638;-65
2023/08/03 05:15:45;;;;;;;0.33;0.33;;;19.10;99.90;;;19.40;nan;99196.84;4992230;28;20638;-65
2023/08/03 05:18:12;;;;;;;0.40;0.40;;;19.10;99.90;;;19.46;nan;99198.69;4992517;28;20662;-65
2023/08/03 05:20:39;;;;;;;0.60;0.50;;;19.10;99.90;;;19.48;nan;99196.66;4993315;28;20678;-64
2023/08/03 05:23:07;;;;;;;1.33;0.90;;;19.10;99.90;;;19.47;nan;99203.75;4985636;28;21211;-66
2023/08/03 05:25:33;;;;;;;5.10;1.00;;;19.10;99.90;;;19.48;nan;99205.41;5000859;28;22310;-65
2023/08/03 05:28:01;;;;;;;0.40;0.40;;;19.10;99.90;;;19.48;nan;99209.88;4992530;28;21480;-64
2023/08/03 05:30:28;;;;;;;1.00;0.57;;;19.10;99.90;;;19.46;nan;99212.72;4989995;28;20645;-65
2023/08/03 05:32:55;;;;;;;0.60;0.60;;;19.10;99.90;;;19.49;nan;99211.50;4996751;28;20661;-64
2023/08/03 05:35:22;;;;;;;0.60;0.60;;;19.10;99.90;;;19.50;nan;99205.19;4992659;28;20665;-66
2023/08/03 05:37:53;;;;;;;0.60;0.60;;;19.10;99.90;;;19.53;nan;99207.44;4988166;28;21250;-64
2023/08/03 05:40:21;;;;;;;1.27;0.80;;;19.10;99.90;;;19.58;nan;99207.63;4991700;28;20666;-65
2023/08/03 05:42:48;;;;;;;0.47;0.40;;;19.20;99.90;;;19.61;nan;99208.06;4991826;28;20633;-64
2023/08/03 05:45:37;;;;;;;0.33;0.33;;;19.20;99.90;;;19.65;nan;99216.41;4996877;28;20985;-64
2023/08/03 05:48:19;;;;;;;5.03;0.83;;;19.30;99.90;;;19.72;nan;99220.69;4991903;28;21032;-65
2023/08/03 05:50:48;;;;;;;0.50;0.50;;;19.30;99.90;;;19.74;nan;99215.19;4998150;28;20646;-68
2023/08/03 05:53:16;;;;;;;0.60;0.60;;;19.40;99.90;;;19.77;nan;99214.78;4988454;28;20643;-65
2023/08/03 05:55:44;;;;;;;0.53;0.50;;;19.30;99.90;;;19.84;nan;99234.94;4996885;28;20708;-65
2023/08/03 05:58:17;;;;;;;1.77;0.60;;;19.40;99.90;;;19.93;nan;99231.06;4984054;28;20669;-65
2023/08/03 06:00:49;;;;;;;0.83;0.53;;;19.50;99.90;;;19.98;nan;99236.56;4990114;28;20678;-66
2023/08/03 06:03:18;;;;;;;0.50;0.50;;;19.60;99.90;;;20.01;nan;99238.81;4996988;28;21020;-65
2023/08/03 06:05:50;;;;;;;1.10;0.60;;;19.70;99.90;;;19.99;nan;99246.16;4984528;28;20648;-64
2023/08/03 06:08:25;;;;;;;0.87;0.40;;;19.70;99.90;;;19.98;nan;99238.41;4989500;28;20658;-65
2023/08/03 06:11:03;;;;;;;2.10;0.60;;;19.60;99.90;;;19.94;nan;99245.13;4989744;28;20645;-64
2023/08/03 06:13:34;;;;;;;1.33;0.77;;;19.60;99.90;;;19.96;nan;99245.72;4996341;28;20650;-65
2023/08/03 06:16:09;;;;;;;0.40;0.40;;;19.60;99.90;;;20.11;nan;99246.34;4995468;28;20633;-65
2023/08/03 06:18:52;;;;;;;0.40;0.40;;;19.70;99.90;;;20.28;nan;99254.72;4987448;28;20642;-64
2023/08/03 06:21:21;;;;;;;0.80;0.80;;;19.80;99.90;;;20.34;nan;99243.28;4988659;28;20727;-65
2023/08/03 06:23:57;;;;;;;0.83;0.60;;;19.90;99.90;;;20.51;nan;99245.31;4990731;28;20635;-65
2023/08/03 06:26:27;;;;;;;1.70;0.70;;;20.10;99.90;;;20.63;nan;99256.09;5002586;28;20637;-65
2023/08/03 06:28:54;;;;;;;0.50;0.50;;;20.20;99.90;;;20.64;nan;99245.28;5000827;28;21020;-65
2023/08/03 06:31:32;;;;;;;1.07;0.77;;;20.30;99.90;;;20.73;nan;99257.28;5002831;28;20633;-66
2023/08/03 06:33:59;;;;;;;1.13;0.80;;;20.40;99.90;;;20.71;nan;99261.97;5004536;28;21017;-66
2023/08/03 06:36:27;;;;;;;0.40;0.40;;;20.40;99.90;;;20.66;nan;99258.31;5008135;28;20641;-64
2023/08/03 06:38:56;;;;;;;0.60;0.60;;;20.30;99.90;;;20.67;nan;99249.34;5001500;28;20633;-65
2023/08/03 06:41:25;;;;;;;0.73;0.60;;;20.30;99.90;;;20.66;nan;99256.47;5003192;28;21246;-67
2023/08/03 06:43:55;;;;;;;1.70;0.50;;;20.30;99.90;;;20.54;nan;99263.44;4992378;28;21269;-65
2023/08/03 06:46:25;;;;;;;0.50;0.50;;;20.20;99.90;;;20.50;nan;99275.47;5005961;28;20640;-65
2023/08/03 06:48:52;;;;;;;0.60;0.60;;;20.10;99.90;;;20.49;nan;99273.84;4993590;28;21039;-64
2023/08/03 06:51:20;;;;;;;2.60;0.93;;;20.10;99.90;;;20.47;nan;99272.41;4987344;28;20650;-67
2023/08/03 06:53:48;;;;;;;4.70;0.70;;;20.10;99.90;;;20.51;nan;99274.44;5004025;28;20641;-65
2023/08/03 06:56:15;;;;;;;0.80;0.80;;;20.10;99.90;;;20.53;nan;99276.91;5004398;28;20636;-64
2023/08/03 06:58:42;;;;;;;0.73;0.73;;;20.20;99.90;;;20.53;nan;99285.66;4999146;28;21066;-65
2023/08/03 07:01:09;;;;;;;4.57;0.70;;;20.20;99.90;;;20.54;nan;99289.13;4990497;28;20671;-65
2023/08/03 07:03:36;;;;;;;0.80;0.60;;;20.20;99.90;;;20.56;nan;99289.72;4996179;28;21183;-65
2023/08/03 07:06:04;;;;;;;3.43;0.80;;;20.20;99.90;;;20.56;nan;99300.31;4990439;28;20622;-67
2023/08/03 07:08:31;;;;;;;0.50;0.50;;;20.20;99.90;;;20.53;nan;99293.59;4992297;28;20704;-65
2023/08/03 07:10:58;;;;;;;0.80;0.60;;;20.20;99.90;;;20.57;nan;99301.97;4993294;28;20730;-66
2023/08/03 07:13:25;;;;;;;0.50;0.50;;;20.20;99.90;;;20.50;nan;99317.06;4991201;28;21010;-65
2023/08/03 07:15:52;;;;;;;1.43;0.60;;;20.20;99.90;;;20.49;nan;99304.81;4997111;28;20649;-65
2023/08/03 07:18:19;;;;;;;1.37;0.43;;;20.10;99.90;;;20.51;nan;99308.06;5002458;28;21238;-66
2023/08/03 07:20:46;;;;;;;3.07;0.80;;;20.10;99.90;;;20.52;nan;99320.31;5009338;28;20740;-67
2023/08/03 07:23:14;;;;;;;2.37;0.70;;;20.20;99.90;;;20.56;nan;99326.81;5008691;28;20629;-65
2023/08/03 07:25:41;;;;;;;1.10;0.67;;;20.20;99.90;;;20.58;nan;99315.00;4996910;28;20650;-65
2023/08/03 07:28:08;;;;;;;1.00;0.40;;;20.20;99.90;;;20.52;nan;99315.84;5008945;28;20657;-65
2023/08/03 07:30:36;;;;;;;0.50;0.50;;;20.20;99.90;;;20.40;nan;99324.59;5009237;28;20646;-65
2023/08/03 07:33:03;;;;;;;1.00;0.60;;;20.10;99.90;;;20.44;nan;99307.28;4999632;28;20638;-65
2023/08/03 07:35:30;;;;;;;1.30;0.73;;;20.10;99.90;;;20.46;nan;99308.72;5002886;28;20646;-65
2023/08/03 07:37:58;;;;;;;0.90;0.70;;;20.10;99.90;;;20.65;nan;99313.16;4984263;28;21322;-65
2023/08/03 07:40:25;;;;;;;0.90;0.60;;;20.30;99.90;;;20.99;nan;99317.38;4993006;28;20677;-66
2023/08/03 07:42:52;;;;;;;1.00;0.50;;;20.50;99.90;;;21.74;nan;99308.69;5002965;28;20644;-65
2023/08/03 07:45:19;;;;;;;0.77;0.63;;;21.20;99.90;;;23.05;nan;99320.91;4985303;28;20640;-66
2023/08/03 07:47:49;;;;;;;0.50;0.50;;;22.50;99.90;;;24.73;nan;99317.03;4995837;28;20753;-65
2023/08/03 07:50:16;;;;;;;1.00;0.50;;;24.10;99.90;;;25.27;nan;99324.66;4997407;28;20649;-69
2023/08/03 07:52:43;;;;;;;0.47;0.47;;;24.90;99.90;;;25.39;nan;99336.91;4983110;28;20643;-65
2023/08/03 07:55:10;;;;;;;1.90;0.70;;;25.10;99.90;;;26.23;nan;99347.84;5001035;28;20657;-64
2023/08/03 07:57:38;;;;;;;1.23;0.80;;;25.70;99.90;;;26.16;nan;99340.00;5002912;28;20668;-65
2023/08/03 08:00:06;;;;;;;0.70;0.50;;;26.00;99.90;;;25.43;nan;99344.50;5003548;28;21250;-66
2023/08/03 08:02:33;;;;;;;0.83;0.60;;;25.40;99.90;;;24.27;nan;99357.81;4992235;28;20638;-65
2023/08/03 08:05:00;;;;;;;1.10;0.80;;;24.40;99.90;;;23.52;nan;99356.59;4990811;28;21475;-65
2023/08/03 08:07:28;;;;;;;2.20;0.73;;;23.50;99.90;;;22.54;nan;99363.72;5008644;28;20673;-66
2023/08/03 08:09:55;;;;;;;1.00;0.53;;;22.60;99.90;;;21.84;nan;99350.72;4991221;28;20661;-65
2023/08/03 08:12:22;;;;;;;0.40;0.40;;;21.80;99.90;;;21.51;nan;99369.44;5008724;28;20629;-65
2023/08/03 08:14:49;;;;;;;0.40;0.40;;;21.40;99.90;;;21.09;nan;99360.19;4993805;28;21198;-65
2023/08/03 08:17:16;;;;;;;1.13;0.60;;;21.00;99.90;;;20.89;nan;99359.41;5004113;28;21246;-64
2023/08/03 08:19:43;;;;;;;2.53;0.83;;;20.70;99.90;;;20.79;nan;99365.13;4989840;28;22764;-65
2023/08/03 08:22:11;;;;;;;0.60;0.40;;;20.50;99.90;;;20.61;nan;99366.78;5003931;28;20672;-67
2023/08/03 08:24:46;;;;;;;0.40;0.40;;;20.30;99.90;;;20.56;nan;99362.09;5007011;28;20638;-66
2023/08/03 08:27:16;;;;;;;0.50;0.50;;;20.20;99.90;;;20.52;nan;99378.59;5002219;28;20662;-68
2023/08/03 08:29:49;;;;;;;0.47;0.47;;;20.20;99.90;;;20.33;nan;99385.53;4998053;28;20646;-69
2023/08/03 08:32:16;;;;;;;1.63;0.60;;;20.10;99.90;;;20.19;nan;99389.13;5007091;28;20748;-65
2023/08/03 08:34:43;;;;;;;0.50;0.50;;;19.90;99.90;;;20.18;nan;99384.88;5003097;28;21182;-66
2023/08/03 08:37:10;;;;;;;0.40;0.40;;;19.90;99.90;;;20.03;nan;99395.66;5000265;28;20661;-67
2023/08/03 08:39:37;;;;;;;0.73;0.43;;;19.70;99.90;;;19.87;nan;99396.00;5006502;28;20641;-65
2023/08/03 08:42:12;;;;;;;0.83;0.50;;;19.60;99.90;;;19.80;nan;99395.19;5005847;28;21046;-66
2023/08/03 08:44:43;;;;;;;0.50;0.50;;;19.50;99.90;;;19.62;nan;99407.31;5003983;28;20642;-64
2023/08/03 08:47:10;;;;;;;0.57;0.50;;;19.30;99.90;;;19.62;nan;99402.00;4990080;28;20676;-66
2023/08/03 08:49:37;;;;;;;0.50;0.50;;;19.20;99.90;;;19.61;nan;99414.44;4996258;28;21290;-67
2023/08/03 08:52:08;;;;;;;0.87;0.40;;;19.20;99.90;;;19.64;nan;99400.81;5007078;28;20637;-67
2023/08/03 08:54:36;;;;;;;0.43;0.43;;;19.30;99.90;;;19.63;nan;99420.34;4994016;28;20649;-65
2023/08/03 08:57:08;;;;;;;0.60;0.60;;;19.30;99.90;;;19.60;nan;99404.03;4989473;28;20655;-65
2023/08/03 08:59:59;;;;;;;0.60;0.53;;;19.30;99.90;;;19.63;nan;99428.28;4998740;28;20637;-65
2023/08/03 09:02:27;;;;;;;0.50;0.50;;;19.30;99.90;;;19.63;nan;99415.06;5002581;28;20639;-67
2023/08/03 09:04:54;;;;;;;0.30;0.30;;;19.30;99.90;;;19.57;nan;99431.69;5008156;28;20713;-66
2023/08/03 09:07:21;;;;;;;0.50;0.50;;;19.30;99.90;;;19.57;nan;99418.47;5001053;28;20669;-65
2023/08/03 09:09:48;;;;;;;0.70;0.50;;;19.20;99.90;;;19.60;nan;99426.03;4993640;28;20673;-68
2023/08/03 09:12:25;;;;;;;0.40;0.40;;;19.20;99.90;;;19.64;nan;99427.25;4996913;28;20633;-66
2023/08/03 09:14:55;;;;;;;0.40;0.40;;;19.30;99.90;;;19.70;nan;99421.19;5007821;28;20644;-64
2023/08/03 09:17:25;;;;;;;0.87;0.50;;;19.30;99.90;;;19.69;nan;99438.09;4996880;28;21094;-65
2023/08/03 09:19:54;;;;;;;0.40;0.40;;;19.30;99.90;;;19.73;nan;99435.84;4996399;28;20645;-65
2023/08/03 09:22:26;;;;;;;0.40;0.30;;;19.40;99.90;;;19.69;nan;99439.91;5005692;28;20735;-64
2023/08/03 09:25:09;;;;;;;0.40;0.40;;;19.40;99.90;;;19.62;nan;99445.16;5009684;28;20629;-62
2023/08/03 09:27:47;;;;;;;0.77;0.50;;;19.30;99.90;;;19.50;nan;99446.75;5011769;28;20649;-65
2023/08/03 09:30:17;;;;;;;0.67;0.60;;;19.20;99.90;;;19.54;nan;99437.41;5012325;28;20692;-65
2023/08/03 09:32:45;;;;;;;2.60;0.60;;;19.20;99.90;;;19.58;nan;99448.41;4996901;28;20652;-66
2023/08/03 09:35:23;;;;;;;0.80;0.47;;;19.20;99.90;;;19.62;nan;99461.03;4995227;28;20677;-64
2023/08/03 09:37:55;;;;;;;0.50;0.40;;;19.30;99.90;;;19.58;nan;99459.81;4998409;28;21492;-64
2023/08/03 09:40:23;;;;;;;0.70;0.50;;;19.30;99.90;;;19.58;nan;99470.38;5011710;28;20637;-64
2023/08/03 09:42:52;;;;;;;2.53;0.70;;;19.20;99.90;;;19.64;nan;99458.19;5003586;28;21605;-65
2023/08/03 09:45:19;;;;;;;0.40;0.40;;;19.20;99.90;;;19.71;nan;99475.75;5003491;28;20642;-65
2023/08/03 09:47:50;;;;;;;0.50;0.50;;;19.30;99.90;;;19.82;nan;99477.84;5004618;28;21085;-62
2023/08/03 09:50:18;;;;;;;1.47;0.60;;;19.40;99.90;;;19.87;nan;99467.47;4998151;28;20629;-62
2023/08/03 09:52:49;;;;;;;0.90;0.70;;;19.50;99.90;;;19.87;nan;99470.09;4994904;28;20642;-66
2023/08/03 09:55:28;;;;;;;0.60;0.40;;;19.50;99.90;;;19.90;nan;99482.13;4999042;28;21179;-65
2023/08/03 09:58:03;;;;;;;1.47;0.63;;;19.50;99.90;;;19.86;nan;99494.13;4990868;28;20662;-64
2023/08/03 10:00:30;;;;;;;1.27;0.70;;;19.50;99.90;;;19.82;nan;99469.06;4998366;28;21507;-64
2023/08/03 10:03:10;;;;;;;0.50;0.50;;;19.50;99.90;;;19.97;nan;99467.94;4998081;28;20634;-62
2023/08/03 10:05:45;;;;;;;1.07;0.57;;;19.60;99.90;;;20.09;nan;99470.81;4994394;28;20635;-65
2023/08/03 10:08:40;;;;;;;0.67;0.60;;;19.70;99.90;;;20.30;nan;99481.28;4996454;28;21048;-64
2023/08/03 10:11:11;;;;;;;0.60;0.60;;;19.80;99.90;;;20.47;nan;99473.75;5009805;28;21217;-65
2023/08/03 10:13:42;;;;;;;0.53;0.53;;;20.10;99.90;;;20.64;nan;99467.06;5009884;28;20653;-67
2023/08/03 10:16:09;;;;;;;0.40;0.40;;;20.20;99.90;;;20.90;nan;99483.00;5003474;28;20637;-64
2023/08/03 10:18:37;;;;;;;0.40;0.40;;;20.50;99.90;;;20.93;nan;99495.84;5008944;28;20646;-65
2023/08/03 10:21:10;;;;;;;0.40;0.40;;;20.60;99.90;;;20.88;nan;99507.06;5003796;28;20680;-64
2023/08/03 10:23:42;;;;;;;0.40;0.40;;;20.50;99.90;;;20.79;nan;99495.03;4989655;28;20645;-66
2023/08/03 10:26:22;;;;;;;0.30;0.30;;;20.50;99.90;;;20.65;nan;99498.69;5003943;28;21257;-69
2023/08/03 10:28:50;;;;;;;0.40;0.40;;;20.40;99.90;;;20.54;nan;99503.75;5001542;28;20715;-68
2023/08/03 10:31:19;;;;;;;1.13;0.50;;;20.20;99.90;;;20.46;nan;99507.41;4989916;28;20645;-64
2023/08/03 10:33:51;;;;;;;0.40;0.40;;;20.10;99.90;;;20.45;nan;99504.94;4985457;28;20650;-66
2023/08/03 10:39:02;;;;;;;0.73;0.30;;;20.10;99.90;;;20.41;nan;99493.94;4988228;28;20642;-65
2023/08/03 10:41:36;;;;;;;0.77;0.50;;;20.10;99.90;;;20.60;nan;99508.25;4991942;28;20727;-64